createdAt,value
2017-12-04T00:00:25.451Z,11.50
2017-12-04T00:02:52.047Z,11.50
2017-12-04T00:05:18.654Z,11.47
2017-12-04T00:07:45.241Z,11.33
2017-12-04T00:10:11.837Z,11.70
2017-12-04T00:12:38.454Z,11.40
2017-12-04T00:15:05.042Z,11.30
2017-12-04T00:17:31.637Z,12.20
2017-12-04T00:19:58.236Z,12.73
2017-12-04T00:22:24.846Z,11.83
2017-12-04T00:24:51.438Z,12.20
2017-12-04T00:27:18.044Z,11.37
2017-12-04T00:29:44.669Z,11.00
2017-12-04T00:32:11.254Z,10.60
2017-12-04T00:34:37.876Z,11.40
2017-12-04T00:37:04.463Z,10.87
2017-12-04T00:39:31.051Z,12.07
2017-12-04T00:41:57.650Z,11.90
2017-12-04T00:44:24.253Z,12.87
2017-12-04T00:46:50.855Z,13.03
2017-12-04T00:49:17.457Z,13.17
2017-12-04T00:51:44.050Z,11.80
2017-12-04T00:54:10.646Z,12.07
2017-12-04T00:56:37.261Z,11.83
2017-12-04T00:59:03.842Z,11.50
2017-12-04T01:01:30.430Z,11.77
2017-12-04T01:03:57.052Z,12.40
2017-12-04T01:06:23.645Z,11.87
2017-12-04T01:08:50.239Z,11.90
2017-12-04T01:11:16.850Z,12.40
2017-12-04T01:13:43.442Z,11.40
2017-12-04T01:16:10.037Z,12.00
2017-12-04T01:18:36.650Z,13.07
2017-12-04T01:21:03.248Z,12.93
2017-12-04T01:23:29.833Z,14.20
2017-12-04T01:25:56.447Z,12.80
2017-12-04T01:28:23.039Z,12.50
2017-12-04T01:30:49.640Z,13.20
2017-12-04T01:33:16.242Z,12.40
2017-12-04T01:35:42.838Z,12.63
2017-12-04T01:38:09.439Z,12.83
2017-12-04T01:40:36.049Z,12.10
2017-12-04T01:43:02.642Z,13.07
2017-12-04T01:45:29.227Z,12.23
2017-12-04T01:47:55.838Z,11.23
2017-12-04T01:50:22.430Z,11.30
2017-12-04T01:52:49.037Z,11.70
2017-12-04T01:55:15.634Z,10.90
2017-12-04T01:57:42.230Z,10.87
2017-12-04T02:00:08.827Z,11.50
2017-12-04T02:02:35.434Z,11.57
2017-12-04T02:05:02.022Z,12.00
2017-12-04T02:07:28.623Z,11.90
2017-12-04T02:09:55.221Z,11.00
2017-12-04T02:12:21.823Z,11.30
2017-12-04T02:14:48.413Z,10.80
2017-12-04T02:17:15.026Z,11.30
2017-12-04T02:19:41.632Z,11.23
2017-12-04T02:22:08.226Z,12.03
2017-12-04T02:24:34.900Z,12.80
2017-12-04T02:27:01.488Z,12.57
2017-12-04T02:29:28.078Z,11.20
2017-12-04T02:31:54.679Z,12.30
2017-12-04T02:34:21.275Z,12.03
2017-12-04T02:36:47.875Z,12.13
2017-12-04T02:39:14.482Z,12.40
2017-12-04T02:41:41.078Z,12.47
2017-12-04T02:44:07.677Z,11.27
2017-12-04T02:46:34.306Z,10.90
2017-12-04T02:49:00.903Z,11.60
2017-12-04T02:51:27.491Z,13.07
2017-12-04T02:53:54.474Z,11.20
2017-12-04T02:56:21.067Z,11.07
2017-12-04T02:58:47.677Z,11.87
2017-12-04T03:01:14.294Z,12.30
2017-12-04T03:03:40.898Z,11.47
2017-12-04T03:06:07.500Z,11.00
2017-12-04T03:08:34.114Z,11.50
2017-12-04T03:11:00.710Z,11.90
2017-12-04T03:13:27.297Z,12.63
2017-12-04T03:15:53.916Z,12.10
2017-12-04T03:18:20.519Z,13.00
2017-12-04T03:20:47.106Z,12.33
2017-12-04T03:23:13.709Z,11.53
2017-12-04T03:25:40.297Z,11.80
2017-12-04T03:28:06.891Z,12.67
2017-12-04T03:30:33.523Z,12.17
2017-12-04T03:33:00.109Z,11.40
2017-12-04T03:35:26.702Z,12.10
2017-12-04T03:37:53.646Z,11.93
2017-12-04T03:40:20.233Z,12.50
2017-12-04T03:42:46.828Z,11.70
2017-12-04T03:45:13.426Z,11.77
2017-12-04T03:47:40.021Z,12.60
2017-12-04T03:50:06.614Z,12.27
2017-12-04T03:52:33.232Z,12.30
2017-12-04T03:54:59.820Z,13.67
2017-12-04T03:57:26.406Z,12.23
2017-12-04T03:59:53.007Z,12.67
2017-12-04T04:02:19.602Z,11.93
2017-12-04T04:04:46.202Z,12.70
2017-12-04T04:07:12.807Z,12.37
2017-12-04T04:09:39.393Z,12.33
2017-12-04T04:12:05.992Z,11.73
2017-12-04T04:14:32.601Z,12.07
2017-12-04T04:16:59.186Z,12.60
2017-12-04T04:19:25.773Z,12.73
2017-12-04T04:21:52.382Z,12.43
2017-12-04T04:24:18.978Z,12.50
2017-12-04T04:26:45.586Z,12.20
2017-12-04T04:29:12.182Z,12.70
2017-12-04T04:31:38.782Z,12.30
2017-12-04T04:34:05.382Z,12.80
2017-12-04T04:36:31.998Z,13.13
2017-12-04T04:38:58.590Z,13.30
2017-12-04T04:41:25.182Z,12.10
2017-12-04T04:43:51.802Z,11.73
2017-12-04T04:46:18.394Z,13.40
2017-12-04T04:48:44.986Z,13.73
2017-12-04T04:51:11.603Z,14.57
2017-12-04T04:53:38.202Z,13.33
2017-12-04T04:56:04.835Z,14.13
2017-12-04T04:58:31.434Z,13.90
2017-12-04T05:00:58.031Z,13.57
2017-12-04T05:03:24.618Z,12.80
2017-12-04T05:05:51.233Z,12.40
2017-12-04T05:08:17.830Z,15.40
2017-12-04T05:10:44.418Z,12.17
2017-12-04T05:13:11.050Z,12.10
2017-12-04T05:15:38.377Z,12.17
2017-12-04T05:18:04.973Z,12.80
2017-12-04T05:20:31.602Z,11.60
2017-12-04T05:22:58.193Z,12.43
2017-12-04T05:25:24.778Z,13.07
2017-12-04T05:27:51.387Z,13.77
2017-12-04T05:30:17.979Z,13.57
2017-12-04T05:32:44.578Z,14.27
2017-12-04T05:35:11.186Z,13.90
2017-12-04T05:37:37.789Z,13.33
2017-12-04T05:40:04.390Z,13.63
2017-12-04T05:42:31.006Z,15.50
2017-12-04T05:44:57.591Z,14.33
2017-12-04T05:47:24.179Z,14.77
2017-12-04T05:49:50.793Z,14.87
2017-12-04T05:52:17.394Z,15.07
2017-12-04T05:54:44.705Z,14.23
2017-12-04T05:57:11.319Z,15.40
2017-12-04T05:59:37.905Z,16.00
2017-12-04T06:02:04.495Z,16.03
2017-12-04T06:04:31.117Z,16.70
2017-12-04T06:06:57.701Z,16.90
2017-12-04T06:09:24.290Z,16.97
2017-12-04T06:11:50.896Z,16.10
2017-12-04T06:14:17.485Z,17.10
2017-12-04T06:16:44.074Z,16.73
2017-12-04T06:19:10.678Z,15.80
2017-12-04T06:21:37.277Z,19.07
2017-12-04T06:24:03.866Z,17.50
2017-12-04T06:26:30.474Z,18.27
2017-12-04T06:28:57.063Z,17.43
2017-12-04T06:31:23.646Z,16.03
2017-12-04T06:33:50.310Z,17.80
2017-12-04T06:36:16.902Z,16.57
2017-12-04T06:38:43.496Z,16.77
2017-12-04T06:41:10.104Z,16.00
2017-12-04T06:43:36.693Z,17.43
2017-12-04T06:46:03.290Z,19.63
2017-12-04T06:48:29.954Z,19.20
2017-12-04T06:50:56.503Z,20.30
2017-12-04T06:53:23.102Z,19.07
2017-12-04T06:55:49.713Z,17.73
2017-12-04T06:58:16.298Z,18.43
2017-12-04T07:00:42.898Z,17.93
2017-12-04T07:03:09.494Z,17.37
2017-12-04T07:05:36.088Z,19.37
2017-12-04T07:08:02.679Z,18.23
2017-12-04T07:10:29.318Z,18.30
2017-12-04T07:12:55.910Z,18.07
2017-12-04T07:15:22.509Z,18.13
2017-12-04T07:17:49.124Z,20.03
2017-12-04T07:20:15.706Z,18.70
2017-12-04T07:22:42.294Z,18.70
2017-12-04T07:25:08.910Z,19.00
2017-12-04T07:27:35.506Z,18.10
2017-12-04T07:30:02.107Z,17.97
2017-12-04T07:32:28.710Z,20.07
2017-12-04T07:34:55.298Z,18.13
2017-12-04T07:37:21.893Z,20.17
2017-12-04T07:39:48.503Z,19.10
2017-12-04T07:42:15.090Z,19.70
2017-12-04T07:44:41.682Z,22.08
2017-12-04T07:47:08.298Z,20.47
2017-12-04T07:49:34.890Z,19.00
2017-12-04T07:52:01.481Z,20.00
2017-12-04T07:54:28.090Z,19.10
2017-12-04T07:56:54.678Z,19.00
2017-12-04T07:59:21.270Z,19.97
2017-12-04T08:01:47.874Z,19.03
2017-12-04T08:04:14.464Z,19.53
2017-12-04T08:06:41.062Z,19.10
2017-12-04T08:09:07.674Z,19.67
2017-12-04T08:11:34.266Z,20.97
2017-12-04T08:14:00.859Z,20.10
2017-12-04T08:16:27.464Z,20.43
2017-12-04T08:18:54.063Z,20.33
2017-12-04T08:21:20.662Z,20.53
2017-12-04T08:23:47.261Z,20.00
2017-12-04T08:26:13.850Z,19.70
2017-12-04T08:28:40.474Z,20.93
2017-12-04T08:31:07.124Z,19.47
2017-12-04T08:33:33.706Z,19.00
2017-12-04T08:36:00.294Z,21.20
2017-12-04T08:38:26.914Z,21.30
2017-12-04T08:40:53.506Z,21.37
2017-12-04T08:43:20.096Z,21.70
2017-12-04T08:45:46.694Z,21.67
2017-12-04T08:48:13.314Z,20.50
2017-12-04T08:50:39.882Z,20.20
2017-12-04T08:53:06.481Z,22.90
2017-12-04T08:55:33.081Z,24.03
2017-12-04T08:57:59.671Z,24.10
2017-12-04T09:00:26.301Z,24.20
2017-12-04T09:02:52.886Z,24.60
2017-12-04T09:05:19.466Z,24.00
2017-12-04T09:07:46.070Z,24.83
2017-12-04T09:10:12.666Z,23.20
2017-12-04T09:12:39.259Z,26.23
2017-12-04T09:15:05.861Z,24.97
2017-12-04T09:17:32.458Z,23.57
2017-12-04T09:19:59.050Z,24.93
2017-12-04T09:22:25.662Z,25.47
2017-12-04T09:24:52.260Z,24.83
2017-12-04T09:27:18.848Z,24.90
2017-12-04T09:29:45.446Z,23.63
2017-12-04T09:32:12.061Z,23.97
2017-12-04T09:34:38.654Z,21.47
2017-12-04T09:37:05.311Z,22.50
2017-12-04T09:39:31.889Z,23.73
2017-12-04T09:41:58.491Z,23.10
2017-12-04T09:44:25.102Z,25.53
2017-12-04T09:46:51.690Z,23.77
2017-12-04T09:49:18.286Z,25.10
2017-12-04T09:51:44.894Z,23.23
2017-12-04T09:54:11.481Z,22.90
2017-12-04T09:56:38.082Z,23.90
2017-12-04T09:59:04.690Z,24.80
2017-12-04T10:01:31.265Z,22.30
2017-12-04T10:03:57.853Z,24.10
2017-12-04T10:06:24.458Z,22.73
2017-12-04T10:08:51.050Z,22.27
2017-12-04T10:11:17.642Z,22.13
2017-12-04T10:13:44.253Z,23.60
2017-12-04T10:16:10.843Z,22.60
2017-12-04T10:18:37.426Z,22.67
2017-12-04T10:21:04.038Z,22.00
2017-12-04T10:23:30.626Z,22.53
2017-12-04T10:25:57.217Z,23.97
2017-12-04T10:28:23.810Z,21.77
2017-12-04T10:30:50.417Z,23.40
2017-12-04T10:33:16.998Z,23.10
2017-12-04T10:35:43.586Z,21.60
2017-12-04T10:38:10.190Z,22.10
2017-12-04T10:40:36.774Z,21.83
2017-12-04T10:43:03.379Z,22.97
2017-12-04T10:45:29.966Z,23.03
2017-12-04T10:47:56.562Z,22.23
2017-12-04T10:50:23.154Z,23.27
2017-12-04T10:52:49.751Z,21.53
2017-12-04T10:55:16.354Z,24.00
2017-12-04T10:57:42.947Z,21.87
2017-12-04T11:00:09.530Z,21.87
2017-12-04T11:02:36.126Z,22.07
2017-12-04T11:05:02.713Z,23.13
2017-12-04T11:07:29.326Z,19.97
2017-12-04T11:09:55.926Z,21.67
2017-12-04T11:12:22.510Z,21.37
2017-12-04T11:14:49.115Z,24.07
2017-12-04T11:17:15.703Z,22.53
2017-12-04T11:19:42.310Z,23.87
2017-12-04T11:22:08.906Z,21.83
2017-12-04T11:24:35.494Z,21.07
2017-12-04T11:27:02.165Z,20.90
2017-12-04T11:29:28.705Z,20.37
2017-12-04T11:31:55.291Z,20.10
2017-12-04T11:34:21.894Z,21.60
2017-12-04T11:36:48.494Z,19.73
2017-12-04T11:39:15.087Z,19.80
2017-12-04T11:41:41.686Z,19.80
2017-12-04T11:44:08.279Z,18.80
2017-12-04T11:46:34.867Z,19.40
2017-12-04T11:49:01.470Z,18.03
2017-12-04T11:51:28.058Z,19.17
2017-12-04T11:53:54.674Z,18.27
2017-12-04T11:56:21.266Z,17.90
2017-12-04T11:58:47.878Z,20.00
2017-12-04T12:01:14.458Z,20.43
2017-12-04T12:03:41.054Z,18.60
2017-12-04T12:06:07.668Z,17.10
2017-12-04T12:08:34.255Z,19.07
2017-12-04T12:11:00.851Z,18.60
2017-12-04T12:13:27.446Z,18.27
2017-12-04T12:15:54.145Z,18.00
2017-12-04T12:18:20.743Z,19.27
2017-12-04T12:20:47.330Z,19.03
2017-12-04T12:23:13.922Z,19.87
2017-12-04T12:25:40.518Z,18.20
2017-12-04T12:28:07.114Z,19.30
2017-12-04T12:30:33.707Z,18.30
2017-12-04T12:33:00.313Z,18.70
2017-12-04T12:35:26.918Z,17.83
2017-12-04T12:40:26.640Z,18.07
2017-12-04T12:42:53.241Z,17.53
2017-12-04T12:45:19.832Z,17.40
2017-12-04T12:47:46.419Z,16.47
2017-12-04T12:50:13.018Z,16.50
2017-12-04T12:52:39.613Z,19.50
2017-12-04T12:55:06.214Z,18.23
2017-12-04T12:57:32.813Z,19.07
2017-12-04T12:59:59.407Z,18.40
2017-12-04T13:02:26.001Z,19.10
2017-12-04T13:04:52.590Z,18.10
2017-12-04T13:07:19.190Z,19.97
2017-12-04T13:09:45.790Z,19.50
2017-12-04T13:12:12.379Z,19.57
2017-12-04T13:14:38.990Z,18.60
2017-12-04T13:17:05.586Z,19.77
2017-12-04T13:19:32.198Z,18.20
2017-12-04T13:21:58.794Z,18.37
2017-12-04T13:24:25.378Z,18.43
2017-12-04T13:26:51.975Z,17.87
2017-12-04T13:29:18.579Z,17.30
2017-12-04T13:31:45.181Z,16.37
2017-12-04T13:34:32.439Z,17.60
2017-12-04T13:36:59.035Z,17.60
2017-12-04T13:39:25.623Z,18.00
2017-12-04T13:41:52.223Z,18.17
2017-12-04T13:44:18.811Z,16.10
2017-12-04T13:46:45.394Z,16.90
2017-12-04T13:49:11.998Z,15.43
2017-12-04T13:51:38.599Z,15.83
2017-12-04T13:54:05.198Z,17.00
2017-12-04T13:56:31.798Z,16.53
2017-12-04T13:58:58.405Z,14.97
2017-12-04T14:01:25.163Z,15.33
2017-12-04T14:03:51.754Z,15.13
2017-12-04T14:06:18.346Z,15.60
2017-12-04T14:08:44.943Z,15.57
2017-12-04T14:11:11.550Z,15.10
2017-12-04T14:13:38.148Z,17.47
2017-12-04T14:16:04.735Z,16.00
2017-12-04T14:18:31.322Z,15.07
2017-12-04T14:20:57.930Z,18.07
2017-12-04T14:23:24.523Z,17.20
2017-12-04T14:25:51.182Z,17.07
2017-12-04T14:28:17.778Z,16.47
2017-12-04T14:30:44.366Z,17.50
2017-12-04T14:33:10.962Z,15.93
2017-12-04T14:35:37.586Z,15.37
2017-12-04T14:38:04.186Z,15.70
2017-12-04T14:40:30.774Z,14.77
2017-12-04T14:42:57.366Z,13.93
2017-12-04T14:45:23.966Z,15.00
2017-12-04T14:47:50.562Z,14.63
2017-12-04T14:50:17.146Z,13.73
2017-12-04T14:52:43.795Z,14.00
2017-12-04T14:55:10.382Z,15.07
2017-12-04T14:57:36.969Z,14.40
2017-12-04T15:00:03.569Z,14.53
2017-12-04T15:02:30.158Z,13.67
2017-12-04T15:04:56.746Z,13.40
2017-12-04T15:07:23.345Z,14.00
2017-12-04T15:09:49.934Z,13.70
2017-12-04T15:12:16.526Z,14.00
2017-12-04T15:14:43.138Z,13.07
2017-12-04T15:17:09.727Z,13.53
2017-12-04T15:19:36.318Z,13.10
2017-12-04T15:22:02.931Z,13.63
2017-12-04T15:24:29.514Z,13.57
2017-12-04T15:26:56.105Z,13.97
2017-12-04T15:29:22.706Z,11.80
2017-12-04T15:31:49.294Z,14.40
2017-12-04T15:34:15.891Z,13.93
2017-12-04T15:36:42.499Z,13.50
2017-12-04T15:39:09.090Z,14.27
2017-12-04T15:41:35.677Z,13.83
2017-12-04T15:44:02.278Z,14.43
2017-12-04T15:46:28.906Z,14.57
2017-12-04T15:48:55.819Z,13.90
2017-12-04T15:51:22.426Z,14.43
2017-12-04T15:53:49.022Z,14.30
2017-12-04T15:56:15.623Z,15.10
2017-12-04T15:58:42.261Z,16.07
2017-12-04T16:01:08.855Z,15.30
2017-12-04T16:03:35.498Z,14.40
2017-12-04T16:06:03.153Z,15.33
2017-12-04T16:08:29.722Z,15.10
2017-12-04T16:10:56.335Z,15.97
2017-12-04T16:13:22.942Z,15.20
2017-12-04T16:15:49.537Z,17.00
2017-12-04T16:18:16.134Z,15.83
2017-12-04T16:20:42.758Z,15.30
2017-12-04T16:23:09.352Z,15.67
2017-12-04T16:25:35.942Z,15.63
2017-12-04T16:28:02.566Z,15.17
2017-12-04T16:30:29.201Z,16.00
2017-12-04T16:32:55.798Z,15.20
2017-12-04T16:35:22.418Z,15.53
2017-12-04T16:37:49.071Z,15.27
2017-12-04T16:40:15.646Z,14.27
2017-12-04T16:42:42.270Z,15.57
2017-12-04T16:45:09.426Z,14.90
2017-12-04T16:47:36.014Z,15.10
2017-12-04T16:50:02.614Z,14.67
2017-12-04T16:52:29.205Z,14.47
2017-12-04T16:54:55.803Z,15.30
2017-12-04T16:57:22.415Z,16.60
2017-12-04T16:59:49.014Z,15.27
2017-12-04T17:02:15.614Z,16.20
2017-12-04T17:04:42.214Z,14.60
2017-12-04T17:07:09.059Z,15.40
2017-12-04T17:09:35.742Z,14.13
2017-12-04T17:12:02.346Z,14.10
2017-12-04T17:14:29.294Z,14.53
2017-12-04T17:16:55.971Z,14.70
2017-12-04T17:19:22.554Z,16.60
2017-12-04T17:21:49.295Z,15.03
2017-12-04T17:24:15.894Z,14.43
2017-12-04T17:26:42.526Z,15.30
2017-12-04T17:29:09.970Z,15.73
2017-12-04T17:31:36.607Z,13.83
2017-12-04T17:34:03.214Z,15.57
2017-12-04T17:36:29.805Z,14.43
2017-12-04T17:38:56.994Z,14.17
2017-12-04T17:41:23.603Z,13.50
2017-12-04T17:43:50.194Z,15.37
2017-12-04T17:46:16.786Z,16.47
2017-12-04T17:48:43.442Z,16.13
2017-12-04T17:51:10.017Z,15.80
2017-12-04T17:53:36.596Z,17.23
2017-12-04T17:56:03.205Z,17.10
2017-12-04T17:58:29.790Z,16.17
2017-12-04T18:00:56.388Z,16.97
2017-12-04T18:03:23.178Z,16.90
2017-12-04T18:05:49.819Z,19.60
2017-12-04T18:08:16.394Z,19.60
2017-12-04T18:10:43.015Z,19.57
2017-12-04T18:13:09.697Z,18.43
2017-12-04T18:15:36.276Z,17.57
2017-12-04T18:18:02.890Z,18.10
2017-12-04T18:20:29.489Z,17.30
2017-12-04T18:22:56.073Z,18.77
2017-12-04T18:25:22.686Z,19.37
2017-12-04T18:27:49.286Z,18.70
2017-12-04T18:30:15.903Z,17.77
2017-12-04T18:32:42.510Z,19.10
2017-12-04T18:35:09.101Z,18.50
2017-12-04T18:37:35.698Z,19.23
2017-12-04T18:40:02.319Z,20.30
2017-12-04T18:42:28.913Z,20.97
2017-12-04T18:44:55.511Z,19.40
2017-12-04T18:47:22.126Z,19.90
2017-12-04T18:49:48.724Z,19.50
2017-12-04T18:52:15.323Z,20.63
2017-12-04T18:54:41.917Z,21.47
2017-12-04T18:57:08.522Z,21.63
2017-12-04T18:59:35.114Z,20.97
2017-12-04T19:02:01.723Z,20.77
2017-12-04T19:04:28.337Z,22.20
2017-12-04T19:06:54.931Z,21.33
2017-12-04T19:09:21.533Z,21.63
2017-12-04T19:11:48.119Z,21.90
2017-12-04T19:14:14.706Z,22.30
2017-12-04T19:16:41.322Z,22.80
2017-12-04T19:19:08.052Z,22.80
2017-12-04T19:21:34.621Z,23.40
2017-12-04T19:24:01.246Z,23.20
2017-12-04T19:26:27.837Z,23.67
2017-12-04T19:28:54.437Z,25.57
2017-12-04T19:31:21.042Z,26.50
2017-12-04T19:33:47.633Z,26.90
2017-12-04T19:36:14.271Z,25.60
2017-12-04T19:38:40.868Z,28.60
2017-12-04T19:41:07.464Z,24.77
2017-12-04T19:43:34.050Z,28.60
2017-12-04T19:46:00.670Z,27.77
2017-12-04T19:48:27.262Z,29.23
2017-12-04T19:50:53.865Z,28.70
2017-12-04T19:53:20.524Z,28.80
2017-12-04T19:55:47.105Z,29.03
2017-12-04T19:58:13.703Z,30.40
2017-12-04T20:00:40.323Z,27.70
2017-12-04T20:03:06.898Z,27.37
2017-12-04T20:05:33.486Z,27.13
2017-12-04T20:08:00.086Z,29.97
2017-12-04T20:10:26.691Z,26.33
2017-12-04T20:12:53.273Z,29.20
2017-12-04T20:15:19.894Z,28.63
2017-12-04T20:17:46.481Z,28.50
2017-12-04T20:20:13.080Z,28.87
2017-12-04T20:22:39.684Z,29.47
2017-12-04T20:25:06.284Z,31.40
2017-12-04T20:27:32.878Z,30.40
2017-12-04T20:29:59.487Z,28.87
2017-12-04T20:32:26.091Z,29.30
2017-12-04T20:34:52.687Z,29.20
2017-12-04T20:37:19.318Z,29.00
2017-12-04T20:39:45.906Z,28.60
2017-12-04T20:42:12.498Z,28.93
2017-12-04T20:44:39.213Z,28.40
2017-12-04T20:47:05.829Z,28.03
2017-12-04T20:49:32.645Z,28.70
2017-12-04T20:51:59.246Z,28.50
2017-12-04T20:54:25.834Z,31.37
2017-12-04T20:56:52.515Z,29.57
2017-12-04T20:59:19.190Z,28.47
2017-12-04T21:01:45.903Z,29.63
2017-12-04T21:04:12.537Z,30.67
2017-12-04T21:06:39.588Z,30.80
2017-12-04T21:09:11.887Z,27.03
2017-12-04T21:11:45.339Z,28.80
2017-12-04T21:14:17.815Z,27.37
2017-12-04T21:16:50.242Z,28.10
2017-12-04T21:19:16.856Z,29.57
2017-12-04T21:21:43.507Z,28.50
2017-12-04T21:24:10.136Z,27.30
2017-12-04T21:26:36.854Z,26.57
2017-12-04T21:29:03.454Z,27.70
2017-12-04T21:31:30.085Z,27.20
2017-12-04T21:33:56.695Z,27.70
2017-12-04T21:36:23.277Z,28.07
2017-12-04T21:38:49.917Z,27.47
2017-12-04T21:41:16.510Z,28.20
2017-12-04T21:43:43.108Z,27.73
2017-12-04T21:46:09.727Z,28.33
2017-12-04T21:48:36.318Z,28.40
2017-12-04T21:51:02.906Z,30.20
2017-12-04T21:53:29.514Z,29.63
2017-12-04T21:55:56.106Z,30.03
2017-12-04T21:58:22.700Z,28.00
2017-12-04T22:00:49.306Z,30.80
2017-12-04T22:03:15.898Z,29.23
2017-12-04T22:05:42.503Z,30.67
2017-12-04T22:08:09.115Z,30.30
2017-12-04T22:10:35.710Z,30.13
2017-12-04T22:13:02.299Z,28.90
2017-12-04T22:15:28.894Z,29.70
2017-12-04T22:17:55.477Z,30.57
2017-12-04T22:20:22.070Z,29.60
2017-12-04T22:22:48.694Z,28.90
2017-12-04T22:25:15.278Z,29.53
2017-12-04T22:27:41.870Z,27.73
2017-12-04T22:30:08.487Z,27.60
2017-12-04T22:32:35.097Z,28.27
2017-12-04T22:35:01.694Z,28.70
2017-12-04T22:37:28.302Z,27.80
2017-12-04T22:39:54.886Z,26.57
2017-12-04T22:42:21.470Z,27.53
2017-12-04T22:44:48.094Z,26.57
2017-12-04T22:47:14.694Z,27.00
2017-12-04T22:49:41.294Z,27.53
2017-12-04T22:52:07.923Z,26.83
2017-12-04T22:54:34.514Z,27.30
2017-12-04T22:57:01.098Z,28.17
2017-12-04T22:59:27.697Z,27.53
2017-12-04T23:01:54.315Z,28.00
2017-12-04T23:04:20.907Z,29.40
2017-12-04T23:06:47.502Z,29.30
2017-12-04T23:09:14.938Z,27.73
2017-12-04T23:11:41.714Z,28.83
2017-12-04T23:14:08.318Z,28.13
2017-12-04T23:16:34.902Z,30.60
2017-12-04T23:19:01.521Z,30.70
2017-12-04T23:21:28.122Z,30.93
2017-12-04T23:23:54.722Z,30.20
2017-12-04T23:26:21.332Z,29.57
2017-12-04T23:28:47.945Z,29.07
2017-12-04T23:31:14.539Z,29.83
2017-12-04T23:33:41.130Z,28.97
2017-12-04T23:36:07.749Z,29.90
2017-12-04T23:38:34.334Z,30.00
2017-12-04T23:41:00.930Z,29.60
2017-12-04T23:43:27.542Z,26.90
2017-12-04T23:45:54.126Z,27.93
2017-12-04T23:48:20.722Z,28.03
2017-12-04T23:50:47.321Z,28.07
2017-12-04T23:53:13.910Z,25.90
2017-12-04T23:55:40.510Z,27.27
2017-12-04T23:58:07.127Z,28.47
